sensor_id;sensor_type;location;lat;lon;timestamp;P1;P2;P0
46681;PMS5003;34101;53.430;-2.224;2023-02-26T00:00:08;9;6;
46681;PMS5003;34101;53.430;-2.224;2023-02-26T00:02:37;5;4;
46681;PMS5003;34101;53.430;-2.224;2023-02-26T00:05:04;8;6;
46681;PMS5003;34101;53.430;-2.224;2023-02-26T00:07:32;5;5;
46681;PMS5003;34101;53.430;-2.224;2023-02-26T00:09:59;7;7;
46681;PMS5003;34101;53.430;-2.224;2023-02-26T00:12:27;7;7;
46681;PMS5003;34101;53.430;-2.224;2023-02-26T00:14:56;9;6;
46681;PMS5003;34101;53.430;-2.224;2023-02-26T00:17:29;5;5;
46681;PMS5003;34101;53.430;-2.224;2023-02-26T00:20:03;6;5;
46681;PMS5003;34101;53.430;-2.224;2023-02-26T00:22:32;7;4;
46681;PMS5003;34101;53.430;-2.224;2023-02-26T00:24:59;4;4;
46681;PMS5003;34101;53.430;-2.224;2023-02-26T00:27:26;8;5;
46681;PMS5003;34101;53.430;-2.224;2023-02-26T00:29:54;10;6;
46681;PMS5003;34101;53.430;-2.224;2023-02-26T00:32:22;10;6;
46681;PMS5003;34101;53.430;-2.224;2023-02-26T00:34:49;6;5;
46681;PMS5003;34101;53.430;-2.224;2023-02-26T00:37:22;8;6;
46681;PMS5003;34101;53.430;-2.224;2023-02-26T00:40:07;5;4;
46681;PMS5003;34101;53.430;-2.224;2023-02-26T00:42:47;5;4;
46681;PMS5003;34101;53.430;-2.224;2023-02-26T00:45:15;5;5;
46681;PMS5003;34101;53.430;-2.224;2023-02-26T00:47:44;7;6;
46681;PMS5003;34101;53.430;-2.224;2023-02-26T00:50:17;7;5;
46681;PMS5003;34101;53.430;-2.224;2023-02-26T00:52:52;7;5;
46681;PMS5003;34101;53.430;-2.224;2023-02-26T00:55:27;8;5;
46681;PMS5003;34101;53.430;-2.224;2023-02-26T00:57:55;8;7;
46681;PMS5003;34101;53.430;-2.224;2023-02-26T01:00:23;9;6;
46681;PMS5003;34101;53.430;-2.224;2023-02-26T01:02:50;5;5;
46681;PMS5003;34101;53.430;-2.224;2023-02-26T01:05:19;4;4;
46681;PMS5003;34101;53.430;-2.224;2023-02-26T01:07:50;9;7;
46681;PMS5003;34101;53.430;-2.224;2023-02-26T01:10:24;7;4;
46681;PMS5003;34101;53.430;-2.224;2023-02-26T01:12:53;4;4;
46681;PMS5003;34101;53.430;-2.224;2023-02-26T01:15:21;7;7;
46681;PMS5003;34101;53.430;-2.224;2023-02-26T01:17:50;6;6;
46681;PMS5003;34101;53.430;-2.224;2023-02-26T01:20:22;6;5;
46681;PMS5003;34101;53.430;-2.224;2023-02-26T01:22:52;6;6;
46681;PMS5003;34101;53.430;-2.224;2023-02-26T01:25:23;8;8;
46681;PMS5003;34101;53.430;-2.224;2023-02-26T01:27:54;8;7;
46681;PMS5003;34101;53.430;-2.224;2023-02-26T01:30:22;5;5;
46681;PMS5003;34101;53.430;-2.224;2023-02-26T01:32:52;6;6;
46681;PMS5003;34101;53.430;-2.224;2023-02-26T01:35:31;6;5;
46681;PMS5003;34101;53.430;-2.224;2023-02-26T01:38:12;7;5;
46681;PMS5003;34101;53.430;-2.224;2023-02-26T01:40:57;5;5;
46681;PMS5003;34101;53.430;-2.224;2023-02-26T01:43:39;5;4;
46681;PMS5003;34101;53.430;-2.224;2023-02-26T01:46:17;5;4;
46681;PMS5003;34101;53.430;-2.224;2023-02-26T01:48:52;5;5;
46681;PMS5003;34101;53.430;-2.224;2023-02-26T01:51:39;6;5;
46681;PMS5003;34101;53.430;-2.224;2023-02-26T01:54:09;6;5;
46681;PMS5003;34101;53.430;-2.224;2023-02-26T01:56:37;7;5;
46681;PMS5003;34101;53.430;-2.224;2023-02-26T01:59:05;7;5;
46681;PMS5003;34101;53.430;-2.224;2023-02-26T02:01:35;5;4;
46681;PMS5003;34101;53.430;-2.224;2023-02-26T02:04:04;4;3;
46681;PMS5003;34101;53.430;-2.224;2023-02-26T02:06:33;5;4;
46681;PMS5003;34101;53.430;-2.224;2023-02-26T02:09:01;5;4;
46681;PMS5003;34101;53.430;-2.224;2023-02-26T02:11:32;5;5;
46681;PMS5003;34101;53.430;-2.224;2023-02-26T02:14:02;7;6;
46681;PMS5003;34101;53.430;-2.224;2023-02-26T02:16:39;5;5;
46681;PMS5003;34101;53.430;-2.224;2023-02-26T02:19:21;7;6;
46681;PMS5003;34101;53.430;-2.224;2023-02-26T02:22:13;7;6;
46681;PMS5003;34101;53.430;-2.224;2023-02-26T02:24:54;8;5;
46681;PMS5003;34101;53.430;-2.224;2023-02-26T02:27:35;4;3;
46681;PMS5003;34101;53.430;-2.224;2023-02-26T02:30:14;6;5;
46681;PMS5003;34101;53.430;-2.224;2023-02-26T02:32:50;3;3;
46681;PMS5003;34101;53.430;-2.224;2023-02-26T02:35:24;6;3;
46681;PMS5003;34101;53.430;-2.224;2023-02-26T02:37:59;5;4;
46681;PMS5003;34101;53.430;-2.224;2023-02-26T02:40:33;5;5;
46681;PMS5003;34101;53.430;-2.224;2023-02-26T02:43:05;4;3;
46681;PMS5003;34101;53.430;-2.224;2023-02-26T02:45:38;4;3;
46681;PMS5003;34101;53.430;-2.224;2023-02-26T02:48:09;3;2;
46681;PMS5003;34101;53.430;-2.224;2023-02-26T02:50:42;6;4;
46681;PMS5003;34101;53.430;-2.224;2023-02-26T02:53:15;6;4;
46681;PMS5003;34101;53.430;-2.224;2023-02-26T02:55:49;4;2;
46681;PMS5003;34101;53.430;-2.224;2023-02-26T02:58:21;4;4;
46681;PMS5003;34101;53.430;-2.224;2023-02-26T03:03:01;6;4;
46681;PMS5003;34101;53.430;-2.224;2023-02-26T03:05:35;4;3;
46681;PMS5003;34101;53.430;-2.224;2023-02-26T03:08:05;3;3;
46681;PMS5003;34101;53.430;-2.224;2023-02-26T03:10:35;4;2;
46681;PMS5003;34101;53.430;-2.224;2023-02-26T03:13:02;2;2;
46681;PMS5003;34101;53.430;-2.224;2023-02-26T03:15:32;2;2;
46681;PMS5003;34101;53.430;-2.224;2023-02-26T03:18:17;2;2;
46681;PMS5003;34101;53.430;-2.224;2023-02-26T03:20:57;3;3;
46681;PMS5003;34101;53.430;-2.224;2023-02-26T03:23:33;3;3;
46681;PMS5003;34101;53.430;-2.224;2023-02-26T03:26:08;2;2;
46681;PMS5003;34101;53.430;-2.224;2023-02-26T03:28:40;3;3;
46681;PMS5003;34101;53.430;-2.224;2023-02-26T03:31:15;3;3;
46681;PMS5003;34101;53.430;-2.224;2023-02-26T03:33:51;3;3;
46681;PMS5003;34101;53.430;-2.224;2023-02-26T03:36:24;1;1;
46681;PMS5003;34101;53.430;-2.224;2023-02-26T03:38:58;3;3;
46681;PMS5003;34101;53.430;-2.224;2023-02-26T03:41:29;3;2;
46681;PMS5003;34101;53.430;-2.224;2023-02-26T03:44:02;3;3;
46681;PMS5003;34101;53.430;-2.224;2023-02-26T03:46:34;2;2;
46681;PMS5003;34101;53.430;-2.224;2023-02-26T03:49:05;5;3;
46681;PMS5003;34101;53.430;-2.224;2023-02-26T03:51:36;2;2;
46681;PMS5003;34101;53.430;-2.224;2023-02-26T03:54:18;2;2;
46681;PMS5003;34101;53.430;-2.224;2023-02-26T03:56:48;4;3;
46681;PMS5003;34101;53.430;-2.224;2023-02-26T03:59:16;2;2;
46681;PMS5003;34101;53.430;-2.224;2023-02-26T04:01:44;4;3;
46681;PMS5003;34101;53.430;-2.224;2023-02-26T04:04:16;1;1;
46681;PMS5003;34101;53.430;-2.224;2023-02-26T04:06:47;3;3;
46681;PMS5003;34101;53.430;-2.224;2023-02-26T04:09:16;2;2;
46681;PMS5003;34101;53.430;-2.224;2023-02-26T04:12:02;2;2;
46681;PMS5003;34101;53.430;-2.224;2023-02-26T04:15:09;2;2;
46681;PMS5003;34101;53.430;-2.224;2023-02-26T04:17:37;4;1;
46681;PMS5003;34101;53.430;-2.224;2023-02-26T04:20:05;3;2;
46681;PMS5003;34101;53.430;-2.224;2023-02-26T04:22:43;2;2;
46681;PMS5003;34101;53.430;-2.224;2023-02-26T04:25:09;2;2;
46681;PMS5003;34101;53.430;-2.224;2023-02-26T04:27:37;3;3;
46681;PMS5003;34101;53.430;-2.224;2023-02-26T04:30:05;2;2;
46681;PMS5003;34101;53.430;-2.224;2023-02-26T04:32:34;2;1;
46681;PMS5003;34101;53.430;-2.224;2023-02-26T04:35:02;2;2;
46681;PMS5003;34101;53.430;-2.224;2023-02-26T04:37:29;1;1;
46681;PMS5003;34101;53.430;-2.224;2023-02-26T04:39:57;3;2;
46681;PMS5003;34101;53.430;-2.224;2023-02-26T04:42:24;2;2;
46681;PMS5003;34101;53.430;-2.224;2023-02-26T04:44:52;4;3;
46681;PMS5003;34101;53.430;-2.224;2023-02-26T04:47:19;4;2;
46681;PMS5003;34101;53.430;-2.224;2023-02-26T04:49:47;2;2;
46681;PMS5003;34101;53.430;-2.224;2023-02-26T04:52:14;6;4;
46681;PMS5003;34101;53.430;-2.224;2023-02-26T04:54:42;2;2;
46681;PMS5003;34101;53.430;-2.224;2023-02-26T04:57:09;2;2;
46681;PMS5003;34101;53.430;-2.224;2023-02-26T04:59:37;3;3;
46681;PMS5003;34101;53.430;-2.224;2023-02-26T05:02:04;2;2;
46681;PMS5003;34101;53.430;-2.224;2023-02-26T05:04:31;2;2;
46681;PMS5003;34101;53.430;-2.224;2023-02-26T05:06:59;3;2;
46681;PMS5003;34101;53.430;-2.224;2023-02-26T05:09:28;6;4;
46681;PMS5003;34101;53.430;-2.224;2023-02-26T05:11:55;2;2;
46681;PMS5003;34101;53.430;-2.224;2023-02-26T05:14:22;5;2;
46681;PMS5003;34101;53.430;-2.224;2023-02-26T05:16:50;3;2;
46681;PMS5003;34101;53.430;-2.224;2023-02-26T05:19:27;4;4;
46681;PMS5003;34101;53.430;-2.224;2023-02-26T05:21:54;4;2;
46681;PMS5003;34101;53.430;-2.224;2023-02-26T05:24:22;3;3;
46681;PMS5003;34101;53.430;-2.224;2023-02-26T05:26:49;3;3;
46681;PMS5003;34101;53.430;-2.224;2023-02-26T05:29:16;3;2;
46681;PMS5003;34101;53.430;-2.224;2023-02-26T05:31:44;4;3;
46681;PMS5003;34101;53.430;-2.224;2023-02-26T05:34:11;3;2;
46681;PMS5003;34101;53.430;-2.224;2023-02-26T05:36:39;3;2;
46681;PMS5003;34101;53.430;-2.224;2023-02-26T05:39:08;3;3;
46681;PMS5003;34101;53.430;-2.224;2023-02-26T05:42:30;5;2;
46681;PMS5003;34101;53.430;-2.224;2023-02-26T05:44:57;4;2;
46681;PMS5003;34101;53.430;-2.224;2023-02-26T05:47:25;6;3;
46681;PMS5003;34101;53.430;-2.224;2023-02-26T05:49:52;3;2;
46681;PMS5003;34101;53.430;-2.224;2023-02-26T05:52:20;4;2;
46681;PMS5003;34101;53.430;-2.224;2023-02-26T05:54:47;4;3;
46681;PMS5003;34101;53.430;-2.224;2023-02-26T05:58:01;3;2;
46681;PMS5003;34101;53.430;-2.224;2023-02-26T06:00:29;3;3;
46681;PMS5003;34101;53.430;-2.224;2023-02-26T06:02:57;3;3;
46681;PMS5003;34101;53.430;-2.224;2023-02-26T06:05:24;3;2;
46681;PMS5003;34101;53.430;-2.224;2023-02-26T06:07:52;3;3;
46681;PMS5003;34101;53.430;-2.224;2023-02-26T06:10:19;4;3;
46681;PMS5003;34101;53.430;-2.224;2023-02-26T06:12:57;2;2;
46681;PMS5003;34101;53.430;-2.224;2023-02-26T06:15:25;5;2;
46681;PMS5003;34101;53.430;-2.224;2023-02-26T06:17:52;2;2;
46681;PMS5003;34101;53.430;-2.224;2023-02-26T06:21:19;3;3;
46681;PMS5003;34101;53.430;-2.224;2023-02-26T06:23:47;2;2;
46681;PMS5003;34101;53.430;-2.224;2023-02-26T06:26:14;3;3;
46681;PMS5003;34101;53.430;-2.224;2023-02-26T06:28:41;5;4;
46681;PMS5003;34101;53.430;-2.224;2023-02-26T06:31:19;3;3;
46681;PMS5003;34101;53.430;-2.224;2023-02-26T06:33:47;3;3;
46681;PMS5003;34101;53.430;-2.224;2023-02-26T06:36:14;2;2;
46681;PMS5003;34101;53.430;-2.224;2023-02-26T06:38:42;2;2;
46681;PMS5003;34101;53.430;-2.224;2023-02-26T06:41:09;3;3;
46681;PMS5003;34101;53.430;-2.224;2023-02-26T06:43:37;3;3;
46681;PMS5003;34101;53.430;-2.224;2023-02-26T06:46:04;2;2;
46681;PMS5003;34101;53.430;-2.224;2023-02-26T06:48:32;3;2;
46681;PMS5003;34101;53.430;-2.224;2023-02-26T06:50:59;5;3;
46681;PMS5003;34101;53.430;-2.224;2023-02-26T06:53:26;3;2;
46681;PMS5003;34101;53.430;-2.224;2023-02-26T06:55:54;6;3;
46681;PMS5003;34101;53.430;-2.224;2023-02-26T06:58:21;5;4;
46681;PMS5003;34101;53.430;-2.224;2023-02-26T07:00:49;2;2;
46681;PMS5003;34101;53.430;-2.224;2023-02-26T07:03:17;5;3;
46681;PMS5003;34101;53.430;-2.224;2023-02-26T07:05:45;2;2;
46681;PMS5003;34101;53.430;-2.224;2023-02-26T07:08:12;3;3;
46681;PMS5003;34101;53.430;-2.224;2023-02-26T07:10:40;5;2;
46681;PMS5003;34101;53.430;-2.224;2023-02-26T07:13:08;5;1;
46681;PMS5003;34101;53.430;-2.224;2023-02-26T07:15:36;2;2;
46681;PMS5003;34101;53.430;-2.224;2023-02-26T07:18:03;4;2;
46681;PMS5003;34101;53.430;-2.224;2023-02-26T07:20:30;2;2;
46681;PMS5003;34101;53.430;-2.224;2023-02-26T07:22:58;1;1;
46681;PMS5003;34101;53.430;-2.224;2023-02-26T07:25:25;1;1;
46681;PMS5003;34101;53.430;-2.224;2023-02-26T07:27:53;1;1;
46681;PMS5003;34101;53.430;-2.224;2023-02-26T07:30:20;4;2;
46681;PMS5003;34101;53.430;-2.224;2023-02-26T07:32:48;4;3;
46681;PMS5003;34101;53.430;-2.224;2023-02-26T07:35:15;3;2;
46681;PMS5003;34101;53.430;-2.224;2023-02-26T07:37:42;2;2;
46681;PMS5003;34101;53.430;-2.224;2023-02-26T07:40:10;4;3;
46681;PMS5003;34101;53.430;-2.224;2023-02-26T07:42:38;3;2;
46681;PMS5003;34101;53.430;-2.224;2023-02-26T07:45:06;2;2;
46681;PMS5003;34101;53.430;-2.224;2023-02-26T07:47:34;2;2;
46681;PMS5003;34101;53.430;-2.224;2023-02-26T07:50:02;7;3;
46681;PMS5003;34101;53.430;-2.224;2023-02-26T07:52:31;3;2;
46681;PMS5003;34101;53.430;-2.224;2023-02-26T07:54:58;3;3;
46681;PMS5003;34101;53.430;-2.224;2023-02-26T07:57:26;1;1;
46681;PMS5003;34101;53.430;-2.224;2023-02-26T07:59:53;2;2;
46681;PMS5003;34101;53.430;-2.224;2023-02-26T08:02:20;3;3;
46681;PMS5003;34101;53.430;-2.224;2023-02-26T08:04:48;4;4;
46681;PMS5003;34101;53.430;-2.224;2023-02-26T08:07:15;6;3;
46681;PMS5003;34101;53.430;-2.224;2023-02-26T08:09:43;7;5;
46681;PMS5003;34101;53.430;-2.224;2023-02-26T08:12:10;2;2;
46681;PMS5003;34101;53.430;-2.224;2023-02-26T08:14:38;4;2;
46681;PMS5003;34101;53.430;-2.224;2023-02-26T08:17:05;6;4;
46681;PMS5003;34101;53.430;-2.224;2023-02-26T08:19:33;7;5;
46681;PMS5003;34101;53.430;-2.224;2023-02-26T08:22:00;3;3;
46681;PMS5003;34101;53.430;-2.224;2023-02-26T08:24:27;4;4;
46681;PMS5003;34101;53.430;-2.224;2023-02-26T08:26:55;3;3;
46681;PMS5003;34101;53.430;-2.224;2023-02-26T08:29:22;4;3;
46681;PMS5003;34101;53.430;-2.224;2023-02-26T08:31:50;3;3;
46681;PMS5003;34101;53.430;-2.224;2023-02-26T08:34:17;5;3;
46681;PMS5003;34101;53.430;-2.224;2023-02-26T08:36:45;7;6;
46681;PMS5003;34101;53.430;-2.224;2023-02-26T08:39:12;15;12;
46681;PMS5003;34101;53.430;-2.224;2023-02-26T08:41:40;17;12;
46681;PMS5003;34101;53.430;-2.224;2023-02-26T08:44:07;20;18;
46681;PMS5003;34101;53.430;-2.224;2023-02-26T08:46:35;17;13;
46681;PMS5003;34101;53.430;-2.224;2023-02-26T08:49:02;13;12;
46681;PMS5003;34101;53.430;-2.224;2023-02-26T08:51:29;11;11;
46681;PMS5003;34101;53.430;-2.224;2023-02-26T08:53:56;13;11;
46681;PMS5003;34101;53.430;-2.224;2023-02-26T08:56:24;9;8;
46681;PMS5003;34101;53.430;-2.224;2023-02-26T08:58:51;7;7;
46681;PMS5003;34101;53.430;-2.224;2023-02-26T09:01:19;5;5;
46681;PMS5003;34101;53.430;-2.224;2023-02-26T09:03:46;6;6;
46681;PMS5003;34101;53.430;-2.224;2023-02-26T09:06:13;7;5;
46681;PMS5003;34101;53.430;-2.224;2023-02-26T09:08:41;6;4;
46681;PMS5003;34101;53.430;-2.224;2023-02-26T09:11:08;2;2;
46681;PMS5003;34101;53.430;-2.224;2023-02-26T09:13:36;5;4;
46681;PMS5003;34101;53.430;-2.224;2023-02-26T09:16:04;3;3;
46681;PMS5003;34101;53.430;-2.224;2023-02-26T09:18:32;2;2;
46681;PMS5003;34101;53.430;-2.224;2023-02-26T09:21:00;3;2;
46681;PMS5003;34101;53.430;-2.224;2023-02-26T09:23:27;2;2;
46681;PMS5003;34101;53.430;-2.224;2023-02-26T09:25:55;4;4;
46681;PMS5003;34101;53.430;-2.224;2023-02-26T09:28:23;4;2;
46681;PMS5003;34101;53.430;-2.224;2023-02-26T09:30:50;5;5;
46681;PMS5003;34101;53.430;-2.224;2023-02-26T09:33:19;4;3;
46681;PMS5003;34101;53.430;-2.224;2023-02-26T09:35:47;4;3;
46681;PMS5003;34101;53.430;-2.224;2023-02-26T09:38:14;2;2;
46681;PMS5003;34101;53.430;-2.224;2023-02-26T09:40:43;6;4;
46681;PMS5003;34101;53.430;-2.224;2023-02-26T09:43:20;2;2;
46681;PMS5003;34101;53.430;-2.224;2023-02-26T09:46:36;2;2;
46681;PMS5003;34101;53.430;-2.224;2023-02-26T09:49:14;3;3;
46681;PMS5003;34101;53.430;-2.224;2023-02-26T09:51:49;4;4;
46681;PMS5003;34101;53.430;-2.224;2023-02-26T09:54:22;4;2;
46681;PMS5003;34101;53.430;-2.224;2023-02-26T09:56:53;2;2;
46681;PMS5003;34101;53.430;-2.224;2023-02-26T09:59:26;5;4;
46681;PMS5003;34101;53.430;-2.224;2023-02-26T10:02:00;3;2;
46681;PMS5003;34101;53.430;-2.224;2023-02-26T10:04:46;3;3;
46681;PMS5003;34101;53.430;-2.224;2023-02-26T10:07:20;3;1;
46681;PMS5003;34101;53.430;-2.224;2023-02-26T10:10:01;3;3;
46681;PMS5003;34101;53.430;-2.224;2023-02-26T10:12:39;2;2;
46681;PMS5003;34101;53.430;-2.224;2023-02-26T10:15:10;3;2;
46681;PMS5003;34101;53.430;-2.224;2023-02-26T10:17:41;2;1;
46681;PMS5003;34101;53.430;-2.224;2023-02-26T10:20:18;3;2;
46681;PMS5003;34101;53.430;-2.224;2023-02-26T10:22:51;5;1;
46681;PMS5003;34101;53.430;-2.224;2023-02-26T10:25:26;5;4;
46681;PMS5003;34101;53.430;-2.224;2023-02-26T10:28:03;2;1;
46681;PMS5003;34101;53.430;-2.224;2023-02-26T10:30:43;2;2;
46681;PMS5003;34101;53.430;-2.224;2023-02-26T10:33:18;2;2;
46681;PMS5003;34101;53.430;-2.224;2023-02-26T10:35:55;4;3;
46681;PMS5003;34101;53.430;-2.224;2023-02-26T10:38:29;4;3;
46681;PMS5003;34101;53.430;-2.224;2023-02-26T10:40:57;3;1;
46681;PMS5003;34101;53.430;-2.224;2023-02-26T10:43:29;2;2;
46681;PMS5003;34101;53.430;-2.224;2023-02-26T10:46:05;2;2;
46681;PMS5003;34101;53.430;-2.224;2023-02-26T10:48:48;1;1;
46681;PMS5003;34101;53.430;-2.224;2023-02-26T10:51:22;2;2;
46681;PMS5003;34101;53.430;-2.224;2023-02-26T10:53:53;1;1;
46681;PMS5003;34101;53.430;-2.224;2023-02-26T10:56:26;5;4;
46681;PMS5003;34101;53.430;-2.224;2023-02-26T10:58:56;2;2;
46681;PMS5003;34101;53.430;-2.224;2023-02-26T11:01:25;3;3;
46681;PMS5003;34101;53.430;-2.224;2023-02-26T11:03:55;3;3;
46681;PMS5003;34101;53.430;-2.224;2023-02-26T11:06:27;4;4;
46681;PMS5003;34101;53.430;-2.224;2023-02-26T11:08:57;2;1;
46681;PMS5003;34101;53.430;-2.224;2023-02-26T11:11:46;2;2;
46681;PMS5003;34101;53.430;-2.224;2023-02-26T11:14:17;3;1;
46681;PMS5003;34101;53.430;-2.224;2023-02-26T11:16:45;3;3;
46681;PMS5003;34101;53.430;-2.224;2023-02-26T11:19:16;2;2;
46681;PMS5003;34101;53.430;-2.224;2023-02-26T11:21:45;7;2;
46681;PMS5003;34101;53.430;-2.224;2023-02-26T11:24:15;4;3;
46681;PMS5003;34101;53.430;-2.224;2023-02-26T11:26:50;2;2;
46681;PMS5003;34101;53.430;-2.224;2023-02-26T11:29:21;5;3;
46681;PMS5003;34101;53.430;-2.224;2023-02-26T11:31:50;4;3;
46681;PMS5003;34101;53.430;-2.224;2023-02-26T11:34:21;2;2;
46681;PMS5003;34101;53.430;-2.224;2023-02-26T11:36:49;3;3;
46681;PMS5003;34101;53.430;-2.224;2023-02-26T11:39:20;3;2;
46681;PMS5003;34101;53.430;-2.224;2023-02-26T11:41:48;4;2;
46681;PMS5003;34101;53.430;-2.224;2023-02-26T11:44:19;2;2;
46681;PMS5003;34101;53.430;-2.224;2023-02-26T11:46:54;4;2;
46681;PMS5003;34101;53.430;-2.224;2023-02-26T11:49:25;4;3;
46681;PMS5003;34101;53.430;-2.224;2023-02-26T11:52:27;3;3;
46681;PMS5003;34101;53.430;-2.224;2023-02-26T11:54:59;2;2;
46681;PMS5003;34101;53.430;-2.224;2023-02-26T11:57:28;3;2;
46681;PMS5003;34101;53.430;-2.224;2023-02-26T11:59:57;4;2;
46681;PMS5003;34101;53.430;-2.224;2023-02-26T12:02:26;7;3;
46681;PMS5003;34101;53.430;-2.224;2023-02-26T12:04:58;5;4;
46681;PMS5003;34101;53.430;-2.224;2023-02-26T12:07:28;3;3;
46681;PMS5003;34101;53.430;-2.224;2023-02-26T12:09:56;3;3;
46681;PMS5003;34101;53.430;-2.224;2023-02-26T12:12:28;3;3;
46681;PMS5003;34101;53.430;-2.224;2023-02-26T12:15:16;4;2;
46681;PMS5003;34101;53.430;-2.224;2023-02-26T12:17:58;3;3;
46681;PMS5003;34101;53.430;-2.224;2023-02-26T12:20:43;5;4;
46681;PMS5003;34101;53.430;-2.224;2023-02-26T12:23:22;6;3;
46681;PMS5003;34101;53.430;-2.224;2023-02-26T12:26:12;2;2;
46681;PMS5003;34101;53.430;-2.224;2023-02-26T12:28:52;2;2;
46681;PMS5003;34101;53.430;-2.224;2023-02-26T12:31:36;5;4;
46681;PMS5003;34101;53.430;-2.224;2023-02-26T12:34:20;1;1;
46681;PMS5003;34101;53.430;-2.224;2023-02-26T12:37:12;2;2;
46681;PMS5003;34101;53.430;-2.224;2023-02-26T12:39:56;3;1;
46681;PMS5003;34101;53.430;-2.224;2023-02-26T12:42:38;3;3;
46681;PMS5003;34101;53.430;-2.224;2023-02-26T12:45:19;5;3;
46681;PMS5003;34101;53.430;-2.224;2023-02-26T12:48:06;1;1;
46681;PMS5003;34101;53.430;-2.224;2023-02-26T12:50:54;3;3;
46681;PMS5003;34101;53.430;-2.224;2023-02-26T12:53:32;4;3;
46681;PMS5003;34101;53.430;-2.224;2023-02-26T12:56:20;2;2;
46681;PMS5003;34101;53.430;-2.224;2023-02-26T12:59:00;3;2;
46681;PMS5003;34101;53.430;-2.224;2023-02-26T13:01:39;1;1;
46681;PMS5003;34101;53.430;-2.224;2023-02-26T13:04:24;0;0;
46681;PMS5003;34101;53.430;-2.224;2023-02-26T13:07:21;6;2;
46681;PMS5003;34101;53.430;-2.224;2023-02-26T13:10:33;5;3;
46681;PMS5003;34101;53.430;-2.224;2023-02-26T13:13:15;3;2;
46681;PMS5003;34101;53.430;-2.224;2023-02-26T13:16:02;3;2;
46681;PMS5003;34101;53.430;-2.224;2023-02-26T13:18:42;5;1;
46681;PMS5003;34101;53.430;-2.224;2023-02-26T13:21:17;0;0;
46681;PMS5003;34101;53.430;-2.224;2023-02-26T13:23:48;2;2;
46681;PMS5003;34101;53.430;-2.224;2023-02-26T13:26:19;3;2;
46681;PMS5003;34101;53.430;-2.224;2023-02-26T13:28:47;6;4;
46681;PMS5003;34101;53.430;-2.224;2023-02-26T13:31:20;3;3;
46681;PMS5003;34101;53.430;-2.224;2023-02-26T13:33:51;3;1;
46681;PMS5003;34101;53.430;-2.224;2023-02-26T13:36:21;5;2;
46681;PMS5003;34101;53.430;-2.224;2023-02-26T13:38:54;4;1;
46681;PMS5003;34101;53.430;-2.224;2023-02-26T13:41:38;1;0;
46681;PMS5003;34101;53.430;-2.224;2023-02-26T13:44:16;3;2;
46681;PMS5003;34101;53.430;-2.224;2023-02-26T13:46:59;2;2;
46681;PMS5003;34101;53.430;-2.224;2023-02-26T13:49:48;5;3;
46681;PMS5003;34101;53.430;-2.224;2023-02-26T13:52:25;2;2;
46681;PMS5003;34101;53.430;-2.224;2023-02-26T13:54:54;5;4;
46681;PMS5003;34101;53.430;-2.224;2023-02-26T13:57:24;4;4;
46681;PMS5003;34101;53.430;-2.224;2023-02-26T14:00:00;1;1;
46681;PMS5003;34101;53.430;-2.224;2023-02-26T14:02:42;1;1;
46681;PMS5003;34101;53.430;-2.224;2023-02-26T14:05:33;2;2;
46681;PMS5003;34101;53.430;-2.224;2023-02-26T14:10:14;3;2;
46681;PMS5003;34101;53.430;-2.224;2023-02-26T14:12:59;4;2;
46681;PMS5003;34101;53.430;-2.224;2023-02-26T14:15:42;4;4;
46681;PMS5003;34101;53.430;-2.224;2023-02-26T14:18:19;4;4;
46681;PMS5003;34101;53.430;-2.224;2023-02-26T14:20:51;5;5;
46681;PMS5003;34101;53.430;-2.224;2023-02-26T14:23:54;6;5;
46681;PMS5003;34101;53.430;-2.224;2023-02-26T14:26:24;7;7;
46681;PMS5003;34101;53.430;-2.224;2023-02-26T14:28:56;5;4;
46681;PMS5003;34101;53.430;-2.224;2023-02-26T14:32:44;5;3;
46681;PMS5003;34101;53.430;-2.224;2023-02-26T14:35:14;3;3;
46681;PMS5003;34101;53.430;-2.224;2023-02-26T14:37:45;3;3;
46681;PMS5003;34101;53.430;-2.224;2023-02-26T14:40:21;3;3;
46681;PMS5003;34101;53.430;-2.224;2023-02-26T14:42:49;3;3;
46681;PMS5003;34101;53.430;-2.224;2023-02-26T14:45:25;3;3;
46681;PMS5003;34101;53.430;-2.224;2023-02-26T14:47:55;3;3;
46681;PMS5003;34101;53.430;-2.224;2023-02-26T14:50:28;5;5;
46681;PMS5003;34101;53.430;-2.224;2023-02-26T14:53:12;4;4;
46681;PMS5003;34101;53.430;-2.224;2023-02-26T14:55:57;4;4;
46681;PMS5003;34101;53.430;-2.224;2023-02-26T14:58:34;4;3;
46681;PMS5003;34101;53.430;-2.224;2023-02-26T15:01:15;4;3;
46681;PMS5003;34101;53.430;-2.224;2023-02-26T15:04:05;3;1;
46681;PMS5003;34101;53.430;-2.224;2023-02-26T15:06:45;7;4;
46681;PMS5003;34101;53.430;-2.224;2023-02-26T15:09:25;6;2;
46681;PMS5003;34101;53.430;-2.224;2023-02-26T15:12:05;5;2;
46681;PMS5003;34101;53.430;-2.224;2023-02-26T15:14:49;3;3;
46681;PMS5003;34101;53.430;-2.224;2023-02-26T15:17:31;4;4;
46681;PMS5003;34101;53.430;-2.224;2023-02-26T15:20:09;5;5;
46681;PMS5003;34101;53.430;-2.224;2023-02-26T15:22:49;4;4;
46681;PMS5003;34101;53.430;-2.224;2023-02-26T15:25:29;2;1;
46681;PMS5003;34101;53.430;-2.224;2023-02-26T15:27:59;3;2;
46681;PMS5003;34101;53.430;-2.224;2023-02-26T15:30:28;1;1;
46681;PMS5003;34101;53.430;-2.224;2023-02-26T15:32:58;2;1;
46681;PMS5003;34101;53.430;-2.224;2023-02-26T15:35:29;3;3;
46681;PMS5003;34101;53.430;-2.224;2023-02-26T15:37:58;2;2;
46681;PMS5003;34101;53.430;-2.224;2023-02-26T15:40:29;5;4;
46681;PMS5003;34101;53.430;-2.224;2023-02-26T15:42:58;2;2;
46681;PMS5003;34101;53.430;-2.224;2023-02-26T15:45:30;3;3;
46681;PMS5003;34101;53.430;-2.224;2023-02-26T15:48:01;1;1;
46681;PMS5003;34101;53.430;-2.224;2023-02-26T15:50:33;2;2;
46681;PMS5003;34101;53.430;-2.224;2023-02-26T15:53:03;2;2;
46681;PMS5003;34101;53.430;-2.224;2023-02-26T15:55:34;2;2;
46681;PMS5003;34101;53.430;-2.224;2023-02-26T15:58:04;3;2;
46681;PMS5003;34101;53.430;-2.224;2023-02-26T16:00:35;3;3;
46681;PMS5003;34101;53.430;-2.224;2023-02-26T16:03:03;4;4;
46681;PMS5003;34101;53.430;-2.224;2023-02-26T16:05:30;2;1;
46681;PMS5003;34101;53.430;-2.224;2023-02-26T16:07:59;2;1;
46681;PMS5003;34101;53.430;-2.224;2023-02-26T16:10:27;2;2;
46681;PMS5003;34101;53.430;-2.224;2023-02-26T16:12:59;4;3;
46681;PMS5003;34101;53.430;-2.224;2023-02-26T16:15:28;3;3;
46681;PMS5003;34101;53.430;-2.224;2023-02-26T16:17:59;3;3;
46681;PMS5003;34101;53.430;-2.224;2023-02-26T16:20:31;3;3;
46681;PMS5003;34101;53.430;-2.224;2023-02-26T16:23:04;4;4;
46681;PMS5003;34101;53.430;-2.224;2023-02-26T16:25:37;2;2;
46681;PMS5003;34101;53.430;-2.224;2023-02-26T16:28:14;2;2;
46681;PMS5003;34101;53.430;-2.224;2023-02-26T16:30:46;3;2;
46681;PMS5003;34101;53.430;-2.224;2023-02-26T16:33:17;2;2;
46681;PMS5003;34101;53.430;-2.224;2023-02-26T16:35:48;5;3;
46681;PMS5003;34101;53.430;-2.224;2023-02-26T16:38:20;5;2;
46681;PMS5003;34101;53.430;-2.224;2023-02-26T16:40:55;2;2;
46681;PMS5003;34101;53.430;-2.224;2023-02-26T16:43:31;5;5;
46681;PMS5003;34101;53.430;-2.224;2023-02-26T16:46:00;6;4;
46681;PMS5003;34101;53.430;-2.224;2023-02-26T16:48:31;3;3;
46681;PMS5003;34101;53.430;-2.224;2023-02-26T16:51:09;2;2;
46681;PMS5003;34101;53.430;-2.224;2023-02-26T16:53:40;2;2;
46681;PMS5003;34101;53.430;-2.224;2023-02-26T16:56:11;5;4;
46681;PMS5003;34101;53.430;-2.224;2023-02-26T16:58:42;3;2;
46681;PMS5003;34101;53.430;-2.224;2023-02-26T17:01:12;1;1;
46681;PMS5003;34101;53.430;-2.224;2023-02-26T17:03:44;2;2;
46681;PMS5003;34101;53.430;-2.224;2023-02-26T17:06:14;3;2;
46681;PMS5003;34101;53.430;-2.224;2023-02-26T17:08:46;2;2;
46681;PMS5003;34101;53.430;-2.224;2023-02-26T17:11:18;2;2;
46681;PMS5003;34101;53.430;-2.224;2023-02-26T17:13:56;4;4;
46681;PMS5003;34101;53.430;-2.224;2023-02-26T17:16:34;3;2;